Time;durP1;ratioP1;P1;durP2;ratioP2;P2;SDS_P1;SDS_P2;PMS_P1;PMS_P2;Temp;Humidity;BMP_temperature;BMP_pressure;BME280_temperature;BME280_humidity;BME280_pressure;Samples;Min_cycle;Max_cycle;Signal;HPM_P1;HPM_P2
2021/11/17 02:26:14;;;;;;;27.00;10.23;;;;;;;2.62;100.00;101188.72;7399246;19;20457;-46
2021/11/17 02:29:20;;;;;;;33.50;11.93;;;;;;;2.61;100.00;101181.84;7394819;19;20487;-45
2021/11/17 02:32:02;;;;;;;28.37;9.07;;;;;;;2.54;100.00;101171.16;7398975;19;20391;-45
2021/11/17 02:35:07;;;;;;;29.83;10.30;;;;;;;2.52;100.00;101172.69;7398021;19;20407;-44
2021/11/17 02:37:49;;;;;;;36.37;10.57;;;;;;;2.51;100.00;101170.91;7390507;19;20800;-45
2021/11/17 02:40:46;;;;;;;34.40;13.57;;;;;;;2.51;100.00;101176.00;7398233;19;20392;-43
2021/11/17 02:43:42;;;;;;;25.77;10.50;;;;;;;2.52;100.00;101177.78;7391077;19;20705;-48
2021/11/17 02:46:43;;;;;;;40.43;14.90;;;;;;;2.50;100.00;101169.13;7398740;19;20380;-46
2021/11/17 02:49:28;;;;;;;31.10;9.50;;;;;;;2.52;100.00;101161.63;7391013;19;20474;-43
2021/11/17 02:52:21;;;;;;;30.97;10.10;;;;;;;2.50;100.00;101156.38;7391747;19;20652;-45
2021/11/17 02:55:14;;;;;;;28.37;11.60;;;;;;;2.46;100.00;101151.81;7398785;19;20384;-46
2021/11/17 02:58:17;;;;;;;27.70;10.43;;;;;;;2.48;100.00;101150.28;7389697;19;20403;-43
2021/11/17 03:01:06;;;;;;;26.23;9.93;;;;;;;2.52;100.00;101147.19;7397428;19;20944;-44
2021/11/17 03:03:49;;;;;;;27.90;9.43;;;;;;;2.66;100.00;101147.44;7390114;19;20440;-44
2021/11/17 03:06:31;;;;;;;24.90;9.23;;;;;;;2.50;100.00;101148.75;7398295;19;20451;-49
2021/11/17 03:09:21;;;;;;;25.80;10.23;;;;;;;2.58;100.00;101140.81;7390204;19;20432;-47
2021/11/17 03:12:04;;;;;;;25.20;9.60;;;;;;;2.55;100.00;101128.72;7402073;19;20468;-44
2021/11/17 03:15:06;;;;;;;26.87;10.13;;;;;;;2.49;100.00;101129.13;7393532;19;20483;-44
2021/11/17 03:17:51;;;;;;;26.50;9.57;;;;;;;2.39;100.00;101127.50;7394462;19;20679;-47
2021/11/17 03:20:41;;;;;;;25.50;8.70;;;;;;;2.42;100.00;101129.41;7404430;19;20405;-44
2021/11/17 03:23:29;;;;;;;17.30;7.30;;;;;;;2.32;100.00;101124.34;7396734;19;20470;-44
2021/11/17 03:26:18;;;;;;;22.40;8.70;;;;;;;2.37;100.00;101130.69;7408112;19;20464;-45
2021/11/17 03:29:12;;;;;;;24.27;8.37;;;;;;;2.42;100.00;101125.19;7397488;19;20452;-43
2021/11/17 03:32:15;;;;;;;22.97;8.33;;;;;;;2.38;100.00;101122.28;7406980;19;20383;-45
2021/11/17 03:35:01;;;;;;;23.70;7.53;;;;;;;2.44;100.00;101127.88;7404605;19;20399;-44
2021/11/17 03:37:46;;;;;;;19.67;7.77;;;;;;;2.34;100.00;101125.34;7396701;19;20415;-44
2021/11/17 03:40:37;;;;;;;21.03;8.47;;;;;;;2.35;100.00;101122.91;7404071;19;20391;-44
2021/11/17 03:43:29;;;;;;;29.33;8.47;;;;;;;2.35;100.00;101117.84;7399672;19;20482;-46
2021/11/17 03:46:27;;;;;;;23.10;7.83;;;;;;;2.37;100.00;101112.88;7404239;19;20388;-44
2021/11/17 03:49:12;;;;;;;19.20;7.40;;;;;;;2.40;100.00;101116.56;7396869;19;20908;-44
2021/11/17 03:51:55;;;;;;;29.37;8.23;;;;;;;2.35;100.00;101128.03;7404340;19;20392;-44
2021/11/17 03:54:44;;;;;;;17.90;7.23;;;;;;;2.40;100.00;101124.19;7401215;19;20482;-45
2021/11/17 03:57:28;;;;;;;17.97;6.37;;;;;;;2.35;100.00;101127.16;7396464;19;21038;-46
2021/11/17 04:00:20;;;;;;;23.00;7.80;;;;;;;2.38;100.00;101122.28;7403274;19;20390;-47
2021/11/17 04:03:17;;;;;;;16.90;7.03;;;;;;;2.36;100.00;101118.72;7398949;19;20418;-44
2021/11/17 04:06:01;;;;;;;20.37;8.07;;;;;;;2.41;100.00;101122.53;7403851;19;20390;-47
2021/11/17 04:08:49;;;;;;;20.43;7.40;;;;;;;2.39;100.00;101124.06;7400282;19;20399;-52
2021/11/17 04:11:48;;;;;;;19.80;7.07;;;;;;;2.43;100.00;101131.19;7403447;19;20382;-48
2021/11/17 04:14:39;;;;;;;20.73;8.20;;;;;;;2.40;100.00;101130.94;7400181;19;20880;-51
2021/11/17 04:17:30;;;;;;;22.40;8.27;;;;;;;2.43;100.00;101123.56;7398101;19;20386;-47
2021/11/17 04:20:12;;;;;;;20.50;8.40;;;;;;;2.39;100.00;101122.41;7402565;19;20388;-46
2021/11/17 04:23:06;;;;;;;21.60;7.67;;;;;;;2.37;100.00;101133.25;7394697;19;20419;-47
2021/11/17 04:26:09;;;;;;;21.63;8.07;;;;;;;2.37;100.00;101125.59;7403280;19;20402;-45
2021/11/17 04:28:54;;;;;;;28.30;9.10;;;;;;;2.42;100.00;101124.31;7397404;19;20775;-46
2021/11/17 04:31:41;;;;;;;24.03;8.60;;;;;;;2.37;100.00;101121.38;7402755;19;20463;-47
2021/11/17 04:34:44;;;;;;;26.23;8.10;;;;;;;2.40;100.00;101129.28;7393677;19;20411;-45
2021/11/17 04:37:41;;;;;;;26.20;9.30;;;;;;;2.45;100.00;101116.91;7395432;19;20434;-44
2021/11/17 04:40:35;;;;;;;23.17;7.13;;;;;;;2.41;100.00;101102.16;7401916;19;20392;-46
2021/11/17 04:43:26;;;;;;;23.17;9.07;;;;;;;2.47;100.00;101106.84;7397694;19;20418;-45
2021/11/17 04:46:09;;;;;;;23.27;8.03;;;;;;;2.46;100.00;101102.53;7402417;19;20380;-44
2021/11/17 04:48:58;;;;;;;24.70;10.40;;;;;;;2.50;100.00;101107.09;7394747;19;20972;-44
2021/11/17 04:51:51;;;;;;;20.70;8.73;;;;;;;2.47;100.00;101107.75;7402009;19;20387;-45
2021/11/17 04:54:47;;;;;;;26.87;8.90;;;;;;;2.48;100.00;101101.00;7399275;19;20868;-44
2021/11/17 04:57:32;;;;;;;23.73;9.80;;;;;;;2.52;100.00;101103.03;7398129;19;20433;-45
2021/11/17 05:00:23;;;;;;;23.30;7.93;;;;;;;2.50;100.00;101108.00;7401159;19;20446;-45
2021/11/17 05:03:04;;;;;;;23.87;8.60;;;;;;;2.49;100.00;101111.31;7397250;19;20417;-44
2021/11/17 05:06:04;;;;;;;29.03;12.03;;;;;;;2.55;100.00;101100.69;7401661;19;20399;-44
2021/11/17 05:08:42;;;;;;;24.50;9.30;;;;;;;2.55;100.00;101098.16;7393762;19;20769;-45
2021/11/17 05:11:25;;;;;;;27.23;9.53;;;;;;;2.50;100.00;101090.16;7405211;19;20399;-44
2021/11/17 05:14:05;;;;;;;25.40;9.30;;;;;;;2.56;100.00;101097.38;7396569;19;20414;-47
2021/11/17 05:16:46;;;;;;;27.83;9.40;;;;;;;2.52;100.00;101101.34;7401328;19;20398;-44
2021/11/17 05:19:24;;;;;;;25.17;9.30;;;;;;;2.60;100.00;101093.44;7393307;19;20431;-44
2021/11/17 05:22:09;;;;;;;27.20;8.77;;;;;;;2.53;100.00;101097.16;7394929;19;20685;-50
2021/11/17 05:24:57;;;;;;;21.27;9.20;;;;;;;2.54;100.00;101093.84;7402064;19;20462;-46
2021/11/17 05:27:48;;;;;;;22.87;9.63;;;;;;;2.58;100.00;101089.88;7394244;19;20439;-45
2021/11/17 05:30:43;;;;;;;22.33;8.40;;;;;;;2.51;100.00;101084.28;7400126;19;20419;-50
2021/11/17 05:33:27;;;;;;;21.40;9.40;;;;;;;2.52;100.00;101083.50;7394080;19;20423;-47
2021/11/17 05:36:09;;;;;;;24.30;10.00;;;;;;;2.49;100.00;101088.38;7401696;19;20399;-45
2021/11/17 05:38:50;;;;;;;26.93;9.10;;;;;;;2.49;100.00;101090.03;7392328;19;20433;-47
2021/11/17 05:41:39;;;;;;;25.40;8.93;;;;;;;2.54;100.00;101083.66;7399928;19;20862;-44
2021/11/17 05:44:26;;;;;;;23.20;8.80;;;;;;;2.53;100.00;101098.06;7392469;19;20879;-44
2021/11/17 05:47:09;;;;;;;23.43;9.20;;;;;;;2.51;100.00;101094.47;7393409;19;20894;-43
2021/11/17 05:49:50;;;;;;;26.27;9.57;;;;;;;2.52;100.00;101086.06;7400511;19;20404;-44
2021/11/17 05:52:38;;;;;;;26.40;9.87;;;;;;;2.53;100.00;101098.06;7394225;19;20924;-46
2021/11/17 05:55:23;;;;;;;22.37;10.20;;;;;;;2.56;100.00;101095.75;7400176;19;20448;-45
2021/11/17 05:58:06;;;;;;;25.07;8.83;;;;;;;2.55;100.00;101093.97;7392903;19;20486;-44
2021/11/17 06:00:53;;;;;;;30.27;10.13;;;;;;;2.53;100.00;101092.97;7403632;19;20408;-44
2021/11/17 06:03:37;;;;;;;26.00;10.03;;;;;;;2.59;100.00;101091.66;7391142;19;20423;-43
2021/11/17 06:06:07;;;;;;;25.40;9.17;;;;;;;2.58;100.00;101089.88;7399903;19;20459;-45
2021/11/17 06:08:36;;;;;;;26.03;8.80;;;;;;;2.54;100.00;101101.47;7392573;19;20429;-43
2021/11/17 06:11:08;;;;;;;27.90;9.93;;;;;;;2.55;100.00;101095.59;7398939;19;20394;-43
2021/11/17 06:13:38;;;;;;;25.20;8.40;;;;;;;2.53;100.00;101084.41;7391444;19;20474;-46
2021/11/17 06:16:08;;;;;;;21.23;7.93;;;;;;;2.50;100.00;101087.59;7399647;19;20388;-48
2021/11/17 06:18:39;;;;;;;29.63;10.47;;;;;;;2.64;100.00;101081.06;7391403;19;20459;-46
2021/11/17 06:21:11;;;;;;;28.07;10.30;;;;;;;2.67;100.00;101088.94;7398354;19;20461;-43
2021/11/17 06:23:46;;;;;;;34.13;10.90;;;;;;;2.65;100.00;101085.38;7390758;19;20672;-43
2021/11/17 06:26:21;;;;;;;37.33;13.60;;;;;;;2.70;100.00;101078.09;7399297;19;20465;-44
2021/11/17 06:28:53;;;;;;;27.33;10.13;;;;;;;2.68;100.00;101087.28;7395151;19;20474;-45
2021/11/17 06:31:23;;;;;;;33.20;11.83;;;;;;;2.69;100.00;101084.88;7398806;19;20375;-44
2021/11/17 06:33:53;;;;;;;26.73;11.20;;;;;;;2.71;100.00;101077.31;7390535;19;20415;-48
2021/11/17 06:36:24;;;;;;;29.07;11.20;;;;;;;2.73;100.00;101070.72;7398856;19;20400;-45
2021/11/17 06:38:55;;;;;;;42.07;14.93;;;;;;;2.75;100.00;101056.41;7390001;19;20451;-48
2021/11/17 06:41:27;;;;;;;32.03;13.20;;;;;;;2.96;100.00;101052.09;7398547;19;20392;-50
2021/11/17 06:43:57;;;;;;;36.27;14.63;;;;;;;3.01;100.00;101052.44;7390934;19;20476;-49
2021/11/17 06:46:26;;;;;;;33.27;13.47;;;;;;;2.83;100.00;101057.03;7398398;19;20846;-45
2021/11/17 06:48:56;;;;;;;38.37;14.87;;;;;;;3.20;100.00;101058.97;7390889;19;20431;-43
2021/11/17 06:51:26;;;;;;;32.63;13.07;;;;;;;3.31;100.00;101052.13;7402805;19;20846;-45
2021/11/17 06:53:55;;;;;;;34.40;13.23;;;;;;;3.08;100.00;101049.59;7396363;19;20421;-52
2021/11/17 06:56:28;;;;;;;37.93;14.43;;;;;;;3.21;100.00;101045.44;7405703;19;20418;-48
2021/11/17 06:58:57;;;;;;;34.93;15.27;;;;;;;2.99;100.00;101054.00;7399916;19;20429;-45
2021/11/17 07:01:27;;;;;;;35.33;13.87;;;;;;;2.88;100.00;101059.94;7409896;19;20420;-49
2021/11/17 07:03:58;;;;;;;40.50;16.63;;;;;;;2.90;100.00;101059.28;7396206;19;20436;-51
2021/11/17 07:06:28;;;;;;;43.07;15.30;;;;;;;2.87;100.00;101053.94;7405814;19;20404;-51
2021/11/17 07:08:58;;;;;;;39.77;15.10;;;;;;;2.92;100.00;101046.66;7397451;19;20421;-49
2021/11/17 07:11:35;;;;;;;43.80;16.87;;;;;;;2.99;100.00;101038.72;7405218;19;20452;-52
2021/11/17 07:14:04;;;;;;;45.43;16.33;;;;;;;2.99;100.00;101033.63;7395951;19;20473;-47
2021/11/17 07:16:35;;;;;;;41.53;16.23;;;;;;;2.86;100.00;101046.19;7405342;19;20402;-50
2021/11/17 07:19:05;;;;;;;43.67;15.60;;;;;;;2.87;100.00;101053.06;7395797;19;20430;-45
2021/11/17 07:21:35;;;;;;;37.77;15.00;;;;;;;2.86;100.00;101059.78;7404557;19;20398;-49
2021/11/17 07:24:05;;;;;;;50.00;17.33;;;;;;;3.01;100.00;101067.75;7395749;19;20952;-45
2021/11/17 07:26:37;;;;;;;47.23;15.90;;;;;;;2.87;100.00;101058.16;7404948;19;20391;-45
2021/11/17 07:29:07;;;;;;;38.33;14.23;;;;;;;2.89;100.00;101054.97;7397728;19;20427;-50
2021/11/17 07:31:36;;;;;;;29.23;10.27;;;;;;;2.94;100.00;101051.09;7404495;19;20378;-49
2021/11/17 07:34:05;;;;;;;39.67;14.70;;;;;;;2.93;100.00;101062.06;7394871;19;20414;-48
2021/11/17 07:36:35;;;;;;;50.90;16.77;;;;;;;2.97;100.00;101047.88;7404683;19;20383;-43
2021/11/17 07:39:06;;;;;;;46.03;16.53;;;;;;;2.97;100.00;101046.22;7398375;19;20922;-43
2021/11/17 07:41:38;;;;;;;46.27;16.80;;;;;;;3.01;100.00;101057.56;7404158;19;20386;-48
2021/11/17 07:44:07;;;;;;;50.27;19.47;;;;;;;3.08;100.00;101054.69;7398549;19;20426;-44
2021/11/17 07:46:37;;;;;;;45.10;17.47;;;;;;;3.04;100.00;101047.59;7404315;19;20406;-45
2021/11/17 07:49:06;;;;;;;56.10;19.20;;;;;;;3.12;100.00;101044.75;7396469;19;20758;-44
2021/11/17 07:51:36;;;;;;;31.80;11.97;;;;;;;3.04;100.00;101044.16;7403939;19;20398;-44
2021/11/17 07:54:05;;;;;;;50.67;17.10;;;;;;;3.06;100.00;101051.16;7394623;19;20419;-47
2021/11/17 07:56:38;;;;;;;45.53;17.67;;;;;;;3.10;100.00;101053.19;7407416;19;20705;-46
2021/11/17 07:59:08;;;;;;;44.63;16.73;;;;;;;3.08;100.00;101041.94;7396265;19;20448;-48
2021/11/17 08:01:38;;;;;;;61.07;16.03;;;;;;;3.03;100.00;101050.91;7403718;19;20386;-46
2021/11/17 08:04:08;;;;;;;39.13;13.73;;;;;;;3.05;100.00;101041.72;7391194;19;20500;-47
2021/11/17 08:06:37;;;;;;;45.67;16.50;;;;;;;3.14;100.00;101035.53;7403716;19;20406;-46
2021/11/17 08:09:07;;;;;;;47.03;16.20;;;;;;;3.12;100.00;101037.09;7399665;19;20445;-44
2021/11/17 08:11:40;;;;;;;47.63;16.50;;;;;;;3.13;100.00;101016.78;7403111;19;20391;-44
2021/11/17 08:14:09;;;;;;;43.30;12.17;;;;;;;3.11;100.00;101031.09;7398097;19;20486;-44
2021/11/17 08:16:40;;;;;;;49.67;16.47;;;;;;;3.16;100.00;101039.09;7403531;19;20407;-44
2021/11/17 08:19:09;;;;;;;40.97;13.13;;;;;;;3.13;100.00;101031.22;7395785;19;20441;-45
2021/11/17 08:21:39;;;;;;;43.60;16.30;;;;;;;3.22;100.00;101037.00;7402707;19;20447;-48
2021/11/17 08:24:09;;;;;;;33.87;12.80;;;;;;;3.20;100.00;101036.91;7392774;19;20430;-44
2021/11/17 08:26:41;;;;;;;36.97;11.87;;;;;;;3.21;100.00;101043.78;7403043;19;20417;-49
2021/11/17 08:29:12;;;;;;;47.00;16.20;;;;;;;3.22;100.00;101042.09;7396638;19;20474;-44
2021/11/17 08:31:42;;;;;;;42.73;13.20;;;;;;;3.21;100.00;101042.88;7402763;19;20390;-47
2021/11/17 08:34:11;;;;;;;46.57;14.70;;;;;;;3.24;100.00;101045.69;7393652;19;20899;-43
2021/11/17 08:36:41;;;;;;;48.70;16.97;;;;;;;3.35;100.00;101038.84;7402786;19;20405;-45
2021/11/17 08:39:10;;;;;;;42.23;14.57;;;;;;;3.36;100.00;101036.41;7393989;19;20486;-44
2021/11/17 08:41:42;;;;;;;39.80;13.30;;;;;;;3.34;100.00;101037.94;7402169;19;20388;-50
2021/11/17 08:44:12;;;;;;;41.10;13.60;;;;;;;3.41;100.00;101023.09;7397198;19;20532;-45
2021/11/17 08:46:41;;;;;;;44.43;14.47;;;;;;;3.39;100.00;101023.00;7402403;19;20439;-44
2021/11/17 08:49:11;;;;;;;42.67;13.93;;;;;;;3.35;100.00;101026.97;7393776;19;20859;-45
2021/11/17 08:51:41;;;;;;;43.30;13.90;;;;;;;3.37;100.00;101030.53;7401344;19;20487;-45
2021/11/17 08:54:10;;;;;;;30.83;11.03;;;;;;;3.40;100.00;101031.53;7398096;19;20441;-44
2021/11/17 08:56:42;;;;;;;34.70;14.43;;;;;;;3.38;100.00;101032.31;7404911;19;20412;-43
2021/11/17 08:59:12;;;;;;;41.73;15.47;;;;;;;3.41;100.00;101026.56;7394821;19;20438;-44
2021/11/17 09:01:42;;;;;;;39.93;14.07;;;;;;;3.45;100.00;101017.47;7405693;19;20398;-45
2021/11/17 09:04:11;;;;;;;35.07;13.00;;;;;;;3.43;100.00;101006.25;7392539;19;20415;-49
2021/11/17 09:06:41;;;;;;;39.10;14.37;;;;;;;3.44;100.00;101008.91;7403741;19;20398;-47
2021/11/17 09:09:11;;;;;;;37.47;12.80;;;;;;;3.44;100.00;101008.91;7397045;19;20893;-45
2021/11/17 09:11:43;;;;;;;39.60;15.37;;;;;;;3.49;100.00;101002.47;7400857;19;20363;-48
2021/11/17 09:14:13;;;;;;;46.60;14.47;;;;;;;3.49;100.00;100997.38;7394415;19;20419;-45
2021/11/17 09:16:48;;;;;;;41.90;14.90;;;;;;;3.51;100.00;100997.50;7401435;19;20438;-43
2021/11/17 09:19:20;;;;;;;31.27;12.30;;;;;;;3.49;100.00;100997.38;7398335;19;20403;-49
2021/11/17 09:21:51;;;;;;;48.83;16.00;;;;;;;3.54;100.00;100973.88;7399375;19;20436;-47
2021/11/17 09:24:23;;;;;;;40.43;12.90;;;;;;;3.53;100.00;100983.19;7398643;19;20478;-44
2021/11/17 09:26:56;;;;;;;45.13;14.70;;;;;;;3.56;100.00;100980.88;7403710;19;20455;-45
2021/11/17 09:29:27;;;;;;;43.43;13.90;;;;;;;3.64;100.00;100977.22;7399012;19;20401;-48
2021/11/17 09:31:57;;;;;;;47.60;14.80;;;;;;;3.63;100.00;100983.09;7397375;19;20465;-47
2021/11/17 09:34:26;;;;;;;41.30;13.73;;;;;;;3.65;100.00;100983.22;7398594;19;20853;-49
2021/11/17 09:36:56;;;;;;;37.43;14.60;;;;;;;3.68;100.00;100991.09;7393620;19;20464;-49
2021/11/17 09:39:25;;;;;;;50.60;12.50;;;;;;;3.66;100.00;100985.00;7399184;19;20380;-45
2021/11/17 09:41:58;;;;;;;52.17;16.23;;;;;;;3.70;100.00;100975.91;7396860;19;20435;-46
2021/11/17 09:44:33;;;;;;;30.47;9.87;;;;;;;3.73;100.00;100971.00;7398124;19;20423;-45
2021/11/17 09:47:06;;;;;;;51.63;12.40;;;;;;;3.77;100.00;100980.66;7392856;19;20447;-52
2021/11/17 09:49:38;;;;;;;31.50;11.10;;;;;;;3.79;100.00;100981.66;7402952;19;20384;-47
2021/11/17 09:52:11;;;;;;;41.63;14.40;;;;;;;3.79;100.00;100971.44;7392278;19;20395;-45
2021/11/17 09:54:54;;;;;;;42.10;15.37;;;;;;;3.83;100.00;100982.75;7398559;19;20730;-44
2021/11/17 09:57:29;;;;;;;59.20;23.30;;;;;;;3.91;100.00;100977.44;7396679;19;20447;-45
2021/11/17 10:00:01;;;;;;;61.30;23.17;;;;;;;3.90;100.00;100975.66;7400123;19;20439;-44
2021/11/17 10:02:37;;;;;;;56.13;19.73;;;;;;;4.01;100.00;100973.00;7393572;19;20490;-50
2021/11/17 10:05:10;;;;;;;39.20;14.40;;;;;;;3.96;100.00;100974.34;7399801;19;20380;-45
2021/11/17 10:11:14;;;;;;;49.07;15.30;;;;;;;3.97;100.00;100963.34;7397000;19;20481;-49
2021/11/17 10:13:51;;;;;;;54.73;18.67;;;;;;;4.03;100.00;100966.34;7393814;19;20435;-45
2021/11/17 10:16:21;;;;;;;38.83;14.00;;;;;;;4.06;100.00;100964.03;7400810;19;20402;-45
2021/11/17 10:18:54;;;;;;;38.70;13.43;;;;;;;4.02;100.00;100964.56;7391137;19;20418;-48
2021/11/17 10:21:32;;;;;;;48.90;15.43;;;;;;;4.07;100.00;100963.25;7395243;19;20440;-47
2021/11/17 10:24:06;;;;;;;35.17;12.77;;;;;;;4.06;100.00;100961.47;7387795;19;20830;-51
2021/11/17 10:26:39;;;;;;;43.23;14.10;;;;;;;4.09;100.00;100959.13;7394156;19;20473;-50
2021/11/17 10:29:29;;;;;;;39.80;12.80;;;;;;;4.11;100.00;100952.44;7389570;19;20491;-51
2021/11/17 10:32:02;;;;;;;48.67;17.50;;;;;;;4.17;100.00;100955.44;7390052;19;20490;-47
2021/11/17 10:34:33;;;;;;;33.40;12.43;;;;;;;4.16;100.00;100947.69;7396287;19;20471;-47
2021/11/17 10:37:05;;;;;;;32.57;11.20;;;;;;;4.19;100.00;100948.78;7389519;19;20700;-46
2021/11/17 10:39:45;;;;;;;42.23;13.87;;;;;;;4.22;100.00;100947.22;7395987;19;20477;-48
2021/11/17 10:42:18;;;;;;;46.23;14.60;;;;;;;4.24;100.00;100943.09;7389402;19;20511;-46
2021/11/17 10:44:54;;;;;;;40.67;14.00;;;;;;;4.27;100.00;100940.78;7397122;19;20412;-45
2021/11/17 10:47:45;;;;;;;43.47;15.23;;;;;;;4.28;100.00;100937.44;7388162;19;20426;-43
2021/11/17 10:50:20;;;;;;;50.33;16.20;;;;;;;4.33;100.00;100938.66;7400961;19;20417;-44
2021/11/17 10:52:52;;;;;;;48.43;15.40;;;;;;;4.35;100.00;100938.75;7388575;19;20469;-45
2021/11/17 10:55:24;;;;;;;50.10;15.23;;;;;;;4.40;100.00;100952.72;7397015;19;20395;-45
2021/11/17 10:57:54;;;;;;;48.27;15.57;;;;;;;4.42;100.00;100940.97;7390766;19;20440;-43
2021/11/17 11:00:30;;;;;;;39.30;14.90;;;;;;;4.38;100.00;100944.97;7396309;19;20384;-42
2021/11/17 11:03:00;;;;;;;50.97;16.53;;;;;;;4.42;100.00;100941.81;7387999;19;20426;-47
2021/11/17 11:05:33;;;;;;;51.97;15.90;;;;;;;4.44;100.00;100945.41;7396153;19;20429;-45
2021/11/17 11:08:05;;;;;;;41.77;14.90;;;;;;;4.48;100.00;100940.47;7392230;19;20712;-43
2021/11/17 11:10:38;;;;;;;45.73;18.13;;;;;;;4.48;100.00;100930.25;7395541;19;20392;-45
2021/11/17 11:13:11;;;;;;;24.83;7.03;;;;;;;4.50;100.00;100937.25;7389255;19;20414;-49
2021/11/17 11:15:48;;;;;;;54.83;17.20;;;;;;;4.63;100.00;100939.00;7396011;19;20392;-44
2021/11/17 11:18:51;;;;;;;39.47;13.13;;;;;;;4.60;100.00;100941.34;7387790;19;20421;-44
2021/11/17 11:21:38;;;;;;;61.33;17.30;;;;;;;4.68;100.00;100934.19;7395842;19;20387;-44
2021/11/17 11:24:27;;;;;;;35.23;10.00;;;;;;;4.67;100.00;100937.53;7387974;19;20711;-42
2021/11/17 11:27:29;;;;;;;50.93;14.97;;;;;;;4.76;100.00;100933.03;7393927;19;20395;-43
2021/11/17 11:30:35;;;;;;;57.20;19.60;;;;;;;4.78;100.00;100920.38;7394196;19;20422;-45
2021/11/17 11:33:32;;;;;;;32.90;12.90;;;;;;;4.84;100.00;100931.03;7389182;19;20422;-45
2021/11/17 11:36:32;;;;;;;45.40;15.03;;;;;;;4.88;100.00;100917.66;7396738;19;20451;-46
2021/11/17 11:39:27;;;;;;;57.90;20.80;;;;;;;4.94;100.00;100914.63;7391128;19;20486;-44
2021/11/17 11:42:14;;;;;;;70.87;22.33;;;;;;;5.04;100.00;100903.34;7397196;19;20422;-46
2021/11/17 11:44:45;;;;;;;74.33;23.07;;;;;;;5.05;100.00;100913.69;7404292;19;20400;-46
2021/11/17 11:47:50;;;;;;;82.60;24.17;;;;;;;5.06;100.00;100911.97;7397943;19;20498;-43
2021/11/17 11:50:58;;;;;;;76.50;22.77;;;;;;;5.09;100.00;100909.66;7401774;19;20443;-44
2021/11/17 11:54:07;;;;;;;65.93;20.23;;;;;;;5.09;100.00;100901.97;7395539;19;20430;-46
2021/11/17 11:56:44;;;;;;;79.63;25.03;;;;;;;5.10;100.00;100896.06;7403631;19;20406;-44
2021/11/17 11:59:16;;;;;;;48.30;16.93;;;;;;;5.10;100.00;100891.84;7399151;19;20433;-45
2021/11/17 12:01:46;;;;;;;85.90;29.30;;;;;;;5.21;100.00;100883.97;7401862;19;20448;-50
2021/11/17 12:04:19;;;;;;;81.60;27.33;;;;;;;5.24;100.00;100887.63;7392928;19;20439;-50
2021/11/17 12:06:56;;;;;;;89.70;28.80;;;;;;;5.34;100.00;100886.53;7403359;19;20395;-48
2021/11/17 12:09:33;;;;;;;92.83;28.27;;;;;;;5.39;100.00;100871.50;7401748;19;20414;-47
2021/11/17 12:12:10;;;;;;;82.57;30.97;;;;;;;5.48;100.00;100872.09;7402075;19;20471;-46
2021/11/17 12:14:48;;;;;;;79.90;27.50;;;;;;;5.49;100.00;100881.53;7403274;19;20395;-46
2021/11/17 12:17:22;;;;;;;70.83;20.87;;;;;;;5.47;100.00;100875.44;7395353;19;20766;-47
2021/11/17 12:19:55;;;;;;;98.23;28.20;;;;;;;5.58;100.00;100867.59;7400261;19;20387;-51
2021/11/17 12:22:40;;;;;;;59.20;21.17;;;;;;;5.60;100.00;100871.13;7391193;19;20470;-46
2021/11/17 12:25:19;;;;;;;101.70;29.77;;;;;;;5.71;100.00;100859.88;7406129;19;20475;-47
2021/11/17 12:27:50;;;;;;;83.83;24.63;;;;;;;5.64;100.00;100868.84;7400856;19;20437;-45
2021/11/17 12:30:32;;;;;;;72.17;25.53;;;;;;;5.73;100.00;100858.28;7402793;19;20400;-48
2021/11/17 12:33:05;;;;;;;78.43;25.53;;;;;;;5.81;100.00;100854.53;7392478;19;20414;-47
2021/11/17 12:35:37;;;;;;;73.30;24.80;;;;;;;5.91;100.00;100850.00;7402334;19;20388;-44
2021/11/17 12:38:08;;;;;;;71.93;24.37;;;;;;;5.95;100.00;100859.66;7393535;19;20490;-47
2021/11/17 12:40:45;;;;;;;67.10;24.90;;;;;;;5.95;100.00;100854.53;7405860;19;20400;-46
2021/11/17 12:43:30;;;;;;;68.40;25.00;;;;;;;6.01;100.00;100852.31;7393639;19;20885;-49
2021/11/17 12:46:07;;;;;;;68.83;25.77;;;;;;;6.10;100.00;100864.84;7400873;19;20400;-44
2021/11/17 12:48:45;;;;;;;66.43;24.47;;;;;;;6.19;100.00;100864.53;7397252;19;20450;-47
2021/11/17 12:51:18;;;;;;;52.67;20.83;;;;;;;6.19;100.00;100859.41;7400604;19;20410;-49
2021/11/17 12:53:50;;;;;;;70.13;26.03;;;;;;;6.22;100.00;100864.75;7392158;19;20451;-47
2021/11/17 12:56:28;;;;;;;62.03;18.23;;;;;;;6.22;100.00;100862.19;7403587;19;20398;-46
2021/11/17 12:59:00;;;;;;;45.80;16.07;;;;;;;6.22;100.00;100865.59;7397024;19;20487;-47
2021/11/17 13:01:37;;;;;;;54.67;19.90;;;;;;;6.29;100.00;100874.56;7400982;19;20455;-46
2021/11/17 13:04:26;;;;;;;53.20;22.70;;;;;;;6.33;100.00;100865.38;7391365;19;20415;-51
2021/11/17 13:06:58;;;;;;;56.70;20.97;;;;;;;6.31;100.00;100860.16;7394176;19;20897;-52
2021/11/17 13:09:30;;;;;;;63.30;25.13;;;;;;;6.33;100.00;100863.72;7399874;19;20447;-49
2021/11/17 13:12:14;;;;;;;58.27;20.73;;;;;;;6.35;100.00;100866.34;7396839;19;20705;-47
2021/11/17 13:15:09;;;;;;;51.20;19.07;;;;;;;6.37;100.00;100858.75;7401042;19;20396;-50
2021/11/17 13:17:43;;;;;;;47.13;18.70;;;;;;;6.38;100.00;100861.44;7392998;19;20476;-47
2021/11/17 13:20:30;;;;;;;34.80;10.40;;;;;;;6.42;100.00;100853.09;7399811;19;20395;-50
2021/11/17 13:23:34;;;;;;;46.30;17.57;;;;;;;6.44;100.00;100853.22;7391274;19;20512;-51
2021/11/17 13:26:26;;;;;;;59.17;19.73;;;;;;;6.46;100.00;100862.75;7400148;19;20405;-52
2021/11/17 13:28:59;;;;;;;45.63;17.67;;;;;;;6.48;100.00;100868.00;7395559;19;20415;-49
2021/11/17 13:31:35;;;;;;;51.70;19.73;;;;;;;6.52;100.00;100863.94;7404234;19;20460;-44
2021/11/17 13:34:09;;;;;;;45.37;16.10;;;;;;;6.54;100.00;100860.66;7390903;19;20896;-44
2021/11/17 13:36:45;;;;;;;44.30;19.17;;;;;;;6.59;100.00;100872.09;7400447;19;20458;-46
2021/11/17 13:39:17;;;;;;;40.97;12.60;;;;;;;6.60;100.00;100862.69;7395944;19;20525;-44
2021/11/17 13:41:48;;;;;;;47.30;16.50;;;;;;;6.62;100.00;100862.00;7399807;19;20392;-45
2021/11/17 13:44:22;;;;;;;45.97;18.97;;;;;;;6.68;100.00;100863.16;7397229;19;20428;-46
2021/11/17 13:46:58;;;;;;;42.23;16.90;;;;;;;6.68;100.00;100871.75;7400756;19;20382;-50
2021/11/17 13:49:29;;;;;;;63.60;18.90;;;;;;;6.74;100.00;100873.78;7398760;19;20415;-44
2021/11/17 13:52:00;;;;;;;50.37;18.20;;;;;;;6.76;100.00;100877.31;7392080;19;20401;-49
2021/11/17 13:54:30;;;;;;;45.30;17.47;;;;;;;6.80;100.00;100879.28;7399300;19;20393;-49
2021/11/17 13:57:00;;;;;;;41.03;14.83;;;;;;;6.81;100.00;100873.34;7399478;19;20418;-46
2021/11/17 13:59:32;;;;;;;46.10;16.20;;;;;;;6.85;100.00;100871.84;7398486;19;20466;-48
2021/11/17 14:02:01;;;;;;;53.03;17.00;;;;;;;6.84;100.00;100880.34;7391035;19;20401;-48
2021/11/17 14:04:31;;;;;;;30.93;8.90;;;;;;;6.82;100.00;100885.38;7399120;19;20849;-47
2021/11/17 14:07:01;;;;;;;27.47;10.07;;;;;;;6.86;100.00;100887.34;7394606;19;20467;-46
2021/11/17 14:09:31;;;;;;;30.93;11.20;;;;;;;6.89;100.00;100892.63;7398362;19;20453;-48
2021/11/17 14:12:02;;;;;;;37.27;13.43;;;;;;;6.93;100.00;100893.72;7395653;19;20855;-46
2021/11/17 14:14:34;;;;;;;48.53;15.37;;;;;;;6.93;100.00;100909.13;7398610;19;20397;-51
2021/11/17 14:17:04;;;;;;;39.33;15.87;;;;;;;6.89;100.00;100923.41;7391937;19;20452;-46
2021/11/17 14:19:34;;;;;;;47.60;15.53;;;;;;;6.88;100.00;100924.22;7398320;19;20418;-49
2021/11/17 14:22:04;;;;;;;42.00;15.93;;;;;;;6.91;100.00;100914.94;7388445;19;20402;-45
2021/11/17 14:24:33;;;;;;;44.10;17.40;;;;;;;6.93;100.00;100918.47;7398224;19;20381;-49
2021/11/17 14:27:03;;;;;;;48.70;18.30;;;;;;;6.96;100.00;100918.66;7395608;19;20409;-45
2021/11/17 14:29:38;;;;;;;49.20;16.70;;;;;;;6.97;100.00;100926.44;7397551;19;20382;-47
2021/11/17 14:32:11;;;;;;;47.30;17.20;;;;;;;6.98;100.00;100917.94;7391118;19;20402;-47